Time;durP1;ratioP1;P1;durP2;ratioP2;P2;SDS_P1;SDS_P2;PMS_P1;PMS_P2;Temp;Humidity;BMP_temperature;BMP_pressure;BME280_temperature;BME280_humidity;BME280_pressure;Samples;Min_cycle;Max_cycle;Signal;HPM_P1;HPM_P2
2022/08/13 00:00:35;;;;;;;1.40;1.30;;;;;;;16.57;60.88;98150.47;5062185;28;20244;-69
2022/08/13 00:03:02;;;;;;;2.00;1.53;;;;;;;16.57;61.12;98142.44;5065441;28;20212;-69
2022/08/13 00:05:29;;;;;;;1.87;1.60;;;;;;;16.56;61.29;98147.94;5066095;28;20692;-70
2022/08/13 00:07:55;;;;;;;1.77;1.60;;;;;;;16.54;61.35;98142.75;5063885;28;20677;-69
2022/08/13 00:10:24;;;;;;;1.60;1.50;;;;;;;16.51;61.58;98153.69;5062026;28;20216;-69
2022/08/13 00:13:03;;;;;;;1.47;1.37;;;;;;;16.47;61.48;98146.94;5065017;28;20215;-69
2022/08/13 00:15:33;;;;;;;1.73;1.57;;;;;;;16.36;62.42;98144.44;5064221;28;20598;-70
2022/08/13 00:18:04;;;;;;;1.77;1.67;;;;;;;16.22;63.75;98142.16;5055329;28;20234;-70
2022/08/13 00:20:33;;;;;;;1.73;1.63;;;;;;;16.10;64.50;98140.63;5063480;28;20239;-69
2022/08/13 00:23:00;;;;;;;1.60;1.50;;;;;;;15.98;65.09;98136.41;5065718;28;20222;-70
2022/08/13 00:25:27;;;;;;;2.17;1.57;;;;;;;15.83;66.28;98133.47;5065205;28;20226;-70
2022/08/13 00:27:58;;;;;;;2.00;1.57;;;;;;;15.73;66.69;98137.91;5061766;28;20674;-70
2022/08/13 00:30:33;;;;;;;1.70;1.60;;;;;;;15.61;66.84;98128.34;5063817;28;20226;-69
2022/08/13 00:33:06;;;;;;;1.67;1.57;;;;;;;15.62;67.39;98124.72;5065467;28;20254;-70
2022/08/13 00:35:36;;;;;;;1.67;1.57;;;;;;;15.66;67.17;98126.97;5062783;28;20224;-70
2022/08/13 00:38:05;;;;;;;1.93;1.60;;;;;;;15.75;66.45;98130.63;5061737;28;20208;-70
2022/08/13 00:40:32;;;;;;;2.83;1.80;;;;;;;15.85;65.73;98134.16;5063903;28;20231;-70
2022/08/13 00:43:02;;;;;;;1.90;1.80;;;;;;;15.90;65.18;98134.59;5065239;28;20211;-71
2022/08/13 00:45:28;;;;;;;1.80;1.70;;;;;;;15.83;65.71;98128.94;5060165;28;20686;-69
2022/08/13 00:50:42;;;;;;;1.93;1.83;;;;;;;15.62;67.67;98122.03;5065225;28;20298;-69
2022/08/13 00:53:18;;;;;;;1.77;1.67;;;;;;;15.51;67.90;98117.69;5063374;28;20297;-69
2022/08/13 00:55:48;;;;;;;1.70;1.60;;;;;;;15.48;68.05;98114.44;5061494;28;20216;-69
2022/08/13 00:58:16;;;;;;;2.00;1.90;;;;;;;15.47;68.23;98105.59;5048322;28;20646;-71
2022/08/13 01:00:46;;;;;;;1.90;1.60;;;;;;;15.44;68.17;98108.56;5065445;28;20302;-71
2022/08/13 01:03:13;;;;;;;1.90;1.80;;;;;;;15.48;67.93;98106.47;5054760;28;20216;-69
2022/08/13 01:05:43;;;;;;;1.70;1.60;;;;;;;15.48;67.79;98106.47;5061989;28;20223;-68
2022/08/13 01:08:10;;;;;;;2.00;1.80;;;;;;;15.44;67.83;98111.22;5064412;28;20276;-69
2022/08/13 01:10:38;;;;;;;2.03;1.93;;;;;;;15.36;68.45;98108.41;5064917;28;20695;-69
2022/08/13 01:13:09;;;;;;;2.87;1.80;;;;;;;15.27;69.35;98111.00;5061524;28;20216;-71
2022/08/13 01:15:36;;;;;;;1.93;1.70;;;;;;;15.22;69.93;98107.91;5062873;28;20216;-70
2022/08/13 01:18:04;;;;;;;2.10;1.93;;;;;;;15.21;69.59;98111.53;5065285;28;20211;-70
2022/08/13 01:20:33;;;;;;;2.30;1.90;;;;;;;15.22;69.87;98113.22;5064277;28;20243;-70
2022/08/13 01:23:01;;;;;;;1.80;1.70;;;;;;;15.18;69.92;98117.13;5061264;28;20585;-70
2022/08/13 01:25:30;;;;;;;2.40;2.03;;;;;;;15.12;70.43;98115.00;5063098;28;20517;-70
2022/08/13 01:27:57;;;;;;;1.90;1.80;;;;;;;15.09;70.42;98110.78;5064885;28;20673;-69
2022/08/13 01:30:24;;;;;;;1.90;1.80;;;;;;;15.09;70.80;98112.63;5064143;28;20230;-69
2022/08/13 01:32:51;;;;;;;2.00;1.90;;;;;;;15.04;71.01;98112.19;5059499;28;20207;-69
2022/08/13 01:35:18;;;;;;;2.40;2.20;;;;;;;15.02;71.19;98104.31;5062839;28;20230;-69
2022/08/13 01:37:53;;;;;;;2.10;1.90;;;;;;;14.97;71.44;98108.38;5064829;28;20669;-69
2022/08/13 01:40:21;;;;;;;2.30;2.10;;;;;;;14.90;72.20;98109.88;5058760;28;20695;-69
2022/08/13 01:42:49;;;;;;;2.13;2.00;;;;;;;14.91;72.40;98106.25;5061030;28;20212;-69
2022/08/13 01:45:16;;;;;;;2.20;2.00;;;;;;;14.94;72.27;98101.50;5063979;28;20302;-69
2022/08/13 01:50:31;;;;;;;2.30;1.97;;;;;;;14.98;72.32;98107.38;5054332;28;20219;-69
2022/08/13 01:53:01;;;;;;;1.83;1.73;;;;;;;14.94;72.43;98105.97;5062411;28;20678;-69
2022/08/13 01:55:39;;;;;;;2.13;1.90;;;;;;;14.78;73.76;98105.63;5064580;28;20211;-68
2022/08/13 01:58:07;;;;;;;2.30;2.00;;;;;;;14.63;74.99;98107.78;5060042;28;20759;-69
2022/08/13 02:00:34;;;;;;;2.10;2.00;;;;;;;14.63;74.44;98113.09;5061074;28;20236;-68
2022/08/13 02:03:01;;;;;;;2.47;2.27;;;;;;;14.61;74.56;98108.88;5064528;28;20221;-68
2022/08/13 02:05:28;;;;;;;2.07;1.87;;;;;;;14.56;74.77;98105.78;5066423;28;20684;-71
2022/08/13 02:07:55;;;;;;;2.57;2.37;;;;;;;14.50;75.07;98108.94;5066078;28;20211;-70
2022/08/13 02:10:23;;;;;;;2.30;2.10;;;;;;;14.47;75.43;98110.06;5064726;28;20216;-70
2022/08/13 02:12:51;;;;;;;2.10;2.00;;;;;;;14.49;75.67;98105.44;5067413;28;20712;-70
2022/08/13 02:15:18;;;;;;;1.93;1.80;;;;;;;14.52;75.57;98104.34;5068226;28;20215;-70
2022/08/13 02:17:45;;;;;;;2.20;2.00;;;;;;;14.53;75.72;98106.00;5065805;28;20233;-70
2022/08/13 02:20:17;;;;;;;2.00;1.90;;;;;;;14.49;75.81;98108.09;5064263;28;20215;-70
2022/08/13 02:22:45;;;;;;;1.90;1.80;;;;;;;14.57;75.60;98107.44;5049961;28;20300;-68
2022/08/13 02:25:13;;;;;;;2.30;1.93;;;;;;;14.62;75.29;98110.56;5066069;28;20211;-69
2022/08/13 02:27:40;;;;;;;2.07;1.97;;;;;;;14.61;75.44;98108.88;5065142;28;20230;-71
2022/08/13 02:30:10;;;;;;;2.27;2.07;;;;;;;14.55;75.87;98114.72;5064023;28;20223;-71
2022/08/13 02:32:38;;;;;;;2.10;2.00;;;;;;;14.57;76.09;98118.09;5050352;28;20269;-68
2022/08/13 02:35:06;;;;;;;1.90;1.80;;;;;;;14.58;75.76;98119.78;5067578;28;20588;-71
2022/08/13 02:37:33;;;;;;;2.37;2.23;;;;;;;14.57;75.53;98118.94;5064110;28;20700;-68
2022/08/13 02:40:01;;;;;;;2.33;2.03;;;;;;;14.53;75.95;98111.34;5064149;28;20609;-68
2022/08/13 02:42:31;;;;;;;2.23;2.07;;;;;;;14.49;76.35;98115.25;5067376;28;20285;-70
2022/08/13 02:44:59;;;;;;;2.47;2.27;;;;;;;14.41;77.08;98118.56;5067723;28;20219;-70
2022/08/13 02:47:32;;;;;;;2.20;2.10;;;;;;;14.39;76.99;98109.88;5056481;28;20218;-70
2022/08/13 02:49:59;;;;;;;2.40;2.20;;;;;;;14.39;77.37;98114.34;5063673;28;20216;-69
2022/08/13 02:52:28;;;;;;;2.53;2.10;;;;;;;14.41;77.21;98117.69;5067572;28;20233;-70
2022/08/13 02:54:55;;;;;;;2.30;2.10;;;;;;;14.45;76.48;98113.81;5066678;28;20242;-70
2022/08/13 02:57:22;;;;;;;2.10;2.00;;;;;;;14.44;76.52;98107.66;5063743;28;20244;-70
2022/08/13 02:59:48;;;;;;;2.40;2.20;;;;;;;14.46;76.67;98118.16;5064756;28;20216;-69
2022/08/13 03:02:14;;;;;;;2.10;1.90;;;;;;;14.47;76.71;98114.50;5067061;28;20234;-69
2022/08/13 03:04:46;;;;;;;2.83;2.17;;;;;;;14.40;77.43;98119.53;5067366;28;20295;-69
2022/08/13 03:07:13;;;;;;;2.60;2.40;;;;;;;14.43;77.71;98121.09;5063357;28;20216;-70
2022/08/13 03:09:39;;;;;;;2.27;2.07;;;;;;;14.40;78.21;98116.88;5064749;28;20661;-70
2022/08/13 03:12:09;;;;;;;2.23;2.00;;;;;;;14.42;78.33;98120.22;5067228;28;20294;-69
2022/08/13 03:14:36;;;;;;;2.40;2.20;;;;;;;14.43;78.30;98113.94;5066157;28;20258;-69
2022/08/13 03:17:03;;;;;;;2.70;1.80;;;;;;;14.45;77.84;98113.81;5061908;28;20215;-69
2022/08/13 03:19:30;;;;;;;2.17;1.97;;;;;;;14.47;78.17;98117.16;5064908;28;20216;-69
2022/08/13 03:21:58;;;;;;;2.53;1.90;;;;;;;14.45;78.30;98113.81;5067106;28;20235;-69
2022/08/13 03:24:25;;;;;;;2.23;2.13;;;;;;;14.49;78.50;98115.25;5066554;28;20276;-69
2022/08/13 03:26:52;;;;;;;2.40;2.20;;;;;;;14.54;78.41;98113.03;5062976;28;20220;-69
2022/08/13 03:29:19;;;;;;;3.17;2.30;;;;;;;14.53;78.11;98116.66;5064562;28;20247;-69
2022/08/13 03:31:46;;;;;;;2.40;2.20;;;;;;;14.56;77.75;98111.09;5066508;28;20215;-69
2022/08/13 03:34:13;;;;;;;2.90;2.30;;;;;;;14.55;77.43;98114.72;5066626;28;20256;-69
2022/08/13 03:36:39;;;;;;;2.60;2.40;;;;;;;14.52;77.97;98107.00;5063081;28;20224;-69
2022/08/13 03:39:07;;;;;;;2.73;2.30;;;;;;;14.56;77.58;98111.09;5063908;28;20212;-69
2022/08/13 03:41:34;;;;;;;2.93;2.17;;;;;;;14.48;77.92;98113.56;5062808;28;20235;-69
2022/08/13 03:44:02;;;;;;;2.30;2.10;;;;;;;14.40;78.50;98105.38;5064867;28;20550;-68
2022/08/13 03:46:29;;;;;;;2.33;2.13;;;;;;;14.35;78.40;98119.06;5062767;28;20218;-69
2022/08/13 03:48:55;;;;;;;2.30;2.10;;;;;;;14.29;79.07;98114.28;5063788;28;20216;-69
2022/08/13 03:51:23;;;;;;;2.30;2.10;;;;;;;14.35;78.47;98118.25;5066418;28;20219;-69
2022/08/13 03:53:50;;;;;;;2.37;2.17;;;;;;;14.33;78.31;98115.72;5066305;28;20277;-69
2022/08/13 03:56:18;;;;;;;2.13;2.03;;;;;;;14.31;78.68;98120.28;5055254;28;20216;-69
2022/08/13 03:58:45;;;;;;;2.47;2.27;;;;;;;14.28;78.66;98117.03;5063596;28;20212;-69
2022/08/13 04:01:13;;;;;;;2.50;2.30;;;;;;;14.29;78.64;98108.13;5065986;28;20704;-69
2022/08/13 04:03:41;;;;;;;2.53;2.33;;;;;;;14.30;78.38;98102.66;5066236;28;20246;-69
2022/08/13 04:06:12;;;;;;;2.60;2.40;;;;;;;14.32;78.49;98107.84;5062152;28;20224;-69
2022/08/13 04:08:39;;;;;;;2.73;2.00;;;;;;;14.27;78.06;98110.91;5062123;28;20303;-69
2022/08/13 04:11:10;;;;;;;2.50;2.30;;;;;;;14.17;79.50;98109.13;5066088;28;20215;-69
2022/08/13 04:13:40;;;;;;;2.50;2.30;;;;;;;14.09;80.34;98112.41;5065199;28;20211;-69
2022/08/13 04:16:10;;;;;;;2.70;2.50;;;;;;;14.08;80.64;98110.72;5062365;28;20216;-69
2022/08/13 04:18:37;;;;;;;2.10;2.00;;;;;;;14.14;80.59;98114.69;5064619;28;20277;-69
2022/08/13 04:21:04;;;;;;;2.17;2.07;;;;;;;14.12;80.56;98111.31;5065646;28;20215;-68
2022/08/13 04:23:32;;;;;;;1.90;1.80;;;;;;;14.18;80.87;98110.81;5064106;28;20207;-69
2022/08/13 04:25:59;;;;;;;2.80;2.30;;;;;;;14.25;80.66;98114.66;5062259;28;20212;-69
2022/08/13 04:28:26;;;;;;;2.20;2.10;;;;;;;14.29;81.04;98108.13;5064217;28;20633;-69
2022/08/13 04:30:54;;;;;;;2.40;2.20;;;;;;;14.37;81.11;98105.66;5065821;28;20238;-69
2022/08/13 04:33:20;;;;;;;2.20;2.00;;;;;;;14.42;81.02;98101.63;5064055;28;20664;-69
2022/08/13 04:35:47;;;;;;;2.37;2.17;;;;;;;14.46;81.05;98103.06;5060503;28;20215;-70
2022/08/13 04:38:15;;;;;;;2.30;2.10;;;;;;;14.49;81.32;98105.44;5064177;28;20216;-68
2022/08/13 04:40:44;;;;;;;2.80;2.60;;;;;;;14.55;80.80;98110.22;5065568;28;20219;-69
2022/08/13 04:43:12;;;;;;;2.70;2.50;;;;;;;14.73;78.20;98118.47;5064169;28;20235;-70
2022/08/13 04:45:40;;;;;;;2.90;2.30;;;;;;;14.89;76.83;98113.50;5061737;28;20220;-70
2022/08/13 04:48:12;;;;;;;3.33;2.70;;;;;;;15.02;75.67;98109.63;5064136;28;20666;-70
2022/08/13 04:50:41;;;;;;;2.87;2.53;;;;;;;15.08;74.84;98113.56;5065315;28;20272;-69
2022/08/13 04:53:10;;;;;;;3.13;2.30;;;;;;;15.12;75.07;98115.00;5063049;28;20210;-69
2022/08/13 04:55:38;;;;;;;2.23;2.03;;;;;;;15.17;75.24;98115.44;5061823;28;20212;-69
2022/08/13 04:58:08;;;;;;;2.60;2.40;;;;;;;15.21;74.78;98120.34;5064865;28;20236;-70
2022/08/13 05:00:35;;;;;;;2.87;2.37;;;;;;;15.33;74.59;98107.84;5063574;28;20217;-69
2022/08/13 05:03:10;;;;;;;3.20;2.43;;;;;;;15.48;73.71;98112.63;5062587;28;20250;-70
2022/08/13 05:05:37;;;;;;;2.60;2.27;;;;;;;15.59;73.71;98109.84;5062584;28;20216;-69
2022/08/13 05:08:05;;;;;;;2.33;2.13;;;;;;;15.69;73.88;98116.03;5065170;28;20251;-70
2022/08/13 05:10:32;;;;;;;2.07;1.97;;;;;;;15.79;73.99;98116.03;5065396;28;20219;-69
2022/08/13 05:13:01;;;;;;;2.70;2.10;;;;;;;15.81;74.65;98122.94;5054457;28;20212;-69
2022/08/13 05:15:27;;;;;;;2.30;2.10;;;;;;;15.92;74.94;98127.28;5062171;28;20220;-69
2022/08/13 05:17:54;;;;;;;3.67;2.40;;;;;;;16.00;73.71;98127.44;5065070;28;20223;-69
2022/08/13 05:20:22;;;;;;;2.60;2.40;;;;;;;16.16;72.32;98125.91;5065412;28;20580;-69
2022/08/13 05:22:49;;;;;;;2.90;2.70;;;;;;;16.31;71.42;98124.47;5054264;28;20240;-69
2022/08/13 05:25:15;;;;;;;2.83;2.50;;;;;;;16.43;70.23;98129.56;5062139;28;20572;-69
2022/08/13 05:27:42;;;;;;;2.53;2.33;;;;;;;16.53;70.22;98126.88;5063563;28;20219;-69
2022/08/13 05:30:12;;;;;;;2.73;2.53;;;;;;;16.62;69.85;98126.88;5065221;28;20211;-69
2022/08/13 05:32:39;;;;;;;2.40;2.20;;;;;;;16.72;70.31;98134.84;5054161;28;20222;-69
2022/08/13 05:35:08;;;;;;;2.33;2.13;;;;;;;16.78;71.74;98134.28;5061846;28;20239;-69
2022/08/13 05:37:36;;;;;;;2.80;2.53;;;;;;;16.91;72.89;98126.78;5065001;28;20581;-69
2022/08/13 05:40:04;;;;;;;2.80;2.60;;;;;;;16.99;72.43;98130.41;5063282;28;20216;-69
2022/08/13 05:42:33;;;;;;;2.63;2.40;;;;;;;17.11;71.28;98131.91;5065115;28;20251;-69
2022/08/13 05:45:01;;;;;;;2.83;2.53;;;;;;;17.27;68.15;98137.50;5066425;28;20215;-70
2022/08/13 05:47:28;;;;;;;3.23;2.50;;;;;;;17.49;66.31;98136.28;5068620;28;20226;-69
2022/08/13 05:49:55;;;;;;;3.03;2.70;;;;;;;18.01;64.72;98138.19;5068476;28;20219;-69
2022/08/13 05:52:24;;;;;;;3.60;2.40;;;;;;;18.80;61.13;98137.25;5063596;28;20223;-69
2022/08/13 05:54:53;;;;;;;2.90;2.60;;;;;;;19.60;57.82;98132.34;5066054;28;20223;-69
2022/08/13 05:57:19;;;;;;;3.97;2.70;;;;;;;20.15;55.44;98130.84;5068328;28;20270;-69
2022/08/13 06:05:15;;;;;;;3.10;2.20;;;;;;;21.94;50.61;98117.59;5053016;28;20218;-69
2022/08/13 06:07:43;;;;;;;2.93;2.20;;;;;;;22.30;49.02;98116.00;5065916;28;20211;-69
2022/08/13 06:10:12;;;;;;;2.83;2.20;;;;;;;22.50;48.27;98119.09;5063353;28;20219;-69
2022/08/13 06:12:42;;;;;;;2.20;2.00;;;;;;;22.63;47.72;98122.88;5065568;28;20223;-68
2022/08/13 06:15:11;;;;;;;2.77;1.97;;;;;;;22.67;47.44;98120.66;5067055;28;20211;-68
2022/08/13 06:17:38;;;;;;;2.70;2.23;;;;;;;22.75;47.65;98124.09;5064770;28;20433;-68
2022/08/13 06:20:06;;;;;;;2.33;2.13;;;;;;;22.89;47.26;98134.09;5061920;28;20223;-69
2022/08/13 06:22:34;;;;;;;2.20;2.00;;;;;;;23.41;46.34;98132.22;5065895;28;20239;-69
2022/08/13 06:25:05;;;;;;;2.30;2.10;;;;;;;23.64;45.68;98138.34;5066886;28;20207;-69
2022/08/13 06:27:33;;;;;;;2.40;2.20;;;;;;;23.93;44.87;98124.84;5064703;28;20265;-69
2022/08/13 06:30:01;;;;;;;2.30;2.10;;;;;;;23.59;44.91;98129.97;5063069;28;20220;-68
2022/08/13 06:32:31;;;;;;;2.10;2.00;;;;;;;23.46;45.95;98134.38;5066460;28;20215;-68
2022/08/13 06:34:59;;;;;;;2.03;1.90;;;;;;;23.20;46.13;98129.41;5066610;28;20219;-67
2022/08/13 06:37:26;;;;;;;2.40;2.20;;;;;;;22.82;47.19;98140.38;5063513;28;20224;-69
2022/08/13 06:39:57;;;;;;;2.43;2.23;;;;;;;22.00;49.09;98141.13;5062720;28;20216;-69
2022/08/13 06:42:24;;;;;;;2.37;2.17;;;;;;;21.23;51.41;98149.16;5049303;28;20246;-69
2022/08/13 06:44:54;;;;;;;2.53;2.33;;;;;;;20.67;52.48;98145.66;5065893;28;20238;-69
2022/08/13 06:47:25;;;;;;;2.67;2.37;;;;;;;20.28;53.29;98145.47;5061824;28;20262;-68
2022/08/13 06:49:53;;;;;;;2.40;2.20;;;;;;;19.98;54.95;98142.50;5063382;28;20627;-68
2022/08/13 06:52:19;;;;;;;2.30;2.10;;;;;;;19.90;55.71;98148.72;5066017;28;20211;-68
2022/08/13 06:54:47;;;;;;;2.47;2.27;;;;;;;19.86;56.50;98144.69;5066393;28;20214;-68
2022/08/13 06:57:15;;;;;;;2.50;2.30;;;;;;;19.97;56.84;98155.09;5055721;28;20290;-68
2022/08/13 06:59:42;;;;;;;2.80;2.20;;;;;;;20.10;56.91;98155.50;5063189;28;20215;-68
2022/08/13 07:02:16;;;;;;;2.13;2.03;;;;;;;20.29;55.97;98157.88;5050400;28;20437;-68
2022/08/13 07:04:47;;;;;;;2.43;2.10;;;;;;;20.36;55.20;98150.03;5063554;28;20592;-66
2022/08/13 07:07:18;;;;;;;2.30;2.10;;;;;;;20.27;56.02;98140.25;5060041;28;20208;-67
2022/08/13 07:09:45;;;;;;;2.40;2.20;;;;;;;20.30;57.16;98148.81;5064231;28;20303;-69
2022/08/13 07:12:13;;;;;;;2.60;2.40;;;;;;;20.43;56.15;98148.34;5064492;28;20233;-69
2022/08/13 07:14:42;;;;;;;2.70;2.50;;;;;;;20.64;55.64;98152.22;5064237;28;20218;-68
2022/08/13 07:17:11;;;;;;;2.30;2.10;;;;;;;20.68;54.92;98148.19;5061822;28;20213;-69
2022/08/13 07:19:38;;;;;;;2.57;2.37;;;;;;;20.77;55.42;98157.06;5065329;28;20555;-69
2022/08/13 07:22:04;;;;;;;3.10;2.23;;;;;;;20.82;55.29;98152.88;5065670;28;20220;-69
2022/08/13 07:24:31;;;;;;;2.67;2.30;;;;;;;20.98;54.72;98166.31;5063437;28;20230;-69
2022/08/13 07:27:03;;;;;;;2.37;2.17;;;;;;;21.06;54.73;98157.41;5061718;28;20216;-69
2022/08/13 07:29:30;;;;;;;2.33;2.13;;;;;;;21.06;54.31;98158.25;5065106;28;20223;-69
2022/08/13 07:32:01;;;;;;;2.37;2.27;;;;;;;21.21;53.57;98148.47;5065331;28;20218;-69
2022/08/13 07:34:31;;;;;;;2.43;2.27;;;;;;;21.33;53.97;98160.53;5062652;28;20208;-69
2022/08/13 07:36:59;;;;;;;2.50;2.30;;;;;;;21.41;52.75;98149.78;5062093;28;20212;-69
2022/08/13 07:39:26;;;;;;;2.40;2.20;;;;;;;21.48;53.33;98148.06;5063728;28;20216;-69
2022/08/13 07:41:56;;;;;;;2.50;2.30;;;;;;;21.58;54.01;98154.06;5062659;28;20215;-69
2022/08/13 07:44:23;;;;;;;2.50;2.30;;;;;;;21.71;53.09;98149.00;5061740;28;20602;-69
2022/08/13 07:46:52;;;;;;;4.43;2.70;;;;;;;21.90;51.79;98143.22;5061917;28;20211;-69
2022/08/13 07:49:20;;;;;;;2.40;2.20;;;;;;;21.86;51.58;98147.25;5064882;28;20234;-69
2022/08/13 07:51:49;;;;;;;2.70;2.50;;;;;;;21.87;50.88;98143.53;5064936;28;20208;-69
2022/08/13 07:54:16;;;;;;;2.93;2.73;;;;;;;21.86;52.05;98146.41;5054541;28;20215;-69
2022/08/13 07:56:47;;;;;;;2.40;2.30;;;;;;;21.85;52.33;98145.59;5062039;28;20248;-69
2022/08/13 07:59:17;;;;;;;3.70;2.80;;;;;;;21.91;51.48;98136.81;5065185;28;20238;-69
2022/08/13 08:01:46;;;;;;;2.90;2.23;;;;;;;21.96;52.10;98137.13;5064192;28;20211;-69
2022/08/13 08:04:14;;;;;;;2.40;2.20;;;;;;;22.20;51.80;98139.63;5060821;28;20242;-69
2022/08/13 08:06:42;;;;;;;2.17;2.00;;;;;;;22.42;50.92;98141.50;5061282;28;20577;-69
2022/08/13 08:09:10;;;;;;;2.80;2.50;;;;;;;22.48;50.49;98135.44;5063332;28;20332;-69
2022/08/13 08:14:24;;;;;;;2.40;2.20;;;;;;;22.83;49.80;98137.50;5060251;28;20223;-69
2022/08/13 08:16:51;;;;;;;2.50;2.30;;;;;;;22.94;49.50;98129.00;5058391;28;20215;-70
2022/08/13 08:19:17;;;;;;;2.47;2.20;;;;;;;23.11;49.57;98135.88;5064005;28;20672;-69
2022/08/13 08:21:44;;;;;;;2.40;2.20;;;;;;;23.13;48.78;98135.69;5059710;28;20638;-69
2022/08/13 08:24:14;;;;;;;2.30;2.20;;;;;;;23.06;48.94;98137.44;5060858;28;20327;-69
2022/08/13 08:26:42;;;;;;;2.77;2.50;;;;;;;23.03;48.55;98138.66;5064185;28;20269;-69
2022/08/13 08:29:10;;;;;;;5.20;2.37;;;;;;;22.92;48.62;98147.19;5064182;28;20261;-69
2022/08/13 08:31:39;;;;;;;2.50;2.30;;;;;;;23.00;48.55;98140.88;5052912;28;20295;-69
2022/08/13 08:34:07;;;;;;;2.80;2.30;;;;;;;23.06;48.73;98146.41;5061401;28;20281;-69
2022/08/13 08:36:38;;;;;;;2.40;2.20;;;;;;;23.21;48.93;98147.28;5064151;28;20422;-69
2022/08/13 08:44:38;;;;;;;3.03;2.70;;;;;;;23.48;48.20;98141.22;5051759;28;20586;-69
2022/08/13 08:47:07;;;;;;;2.70;2.50;;;;;;;23.57;48.81;98141.97;5062209;28;20369;-69
2022/08/13 08:49:34;;;;;;;2.47;2.20;;;;;;;23.61;48.79;98136.03;5060238;28;20212;-69
2022/08/13 08:52:03;;;;;;;2.60;2.40;;;;;;;23.68;48.38;98142.34;5063134;28;20219;-69
2022/08/13 08:54:30;;;;;;;2.77;2.30;;;;;;;23.76;49.15;98147.63;5063866;28;20218;-69
2022/08/13 08:56:59;;;;;;;2.37;2.17;;;;;;;23.76;47.81;98142.25;5061974;28;20239;-69
2022/08/13 08:59:27;;;;;;;2.60;2.30;;;;;;;23.73;47.32;98139.94;5058616;28;20235;-69
2022/08/13 09:01:55;;;;;;;2.10;2.00;;;;;;;23.75;48.07;98140.56;5063402;28;20707;-69
2022/08/13 09:04:25;;;;;;;3.07;2.40;;;;;;;23.85;48.19;98141.13;5064040;28;20319;-69
2022/08/13 09:06:53;;;;;;;3.07;2.37;;;;;;;23.93;47.23;98143.75;5061622;28;20214;-69
2022/08/13 09:09:22;;;;;;;2.37;2.17;;;;;;;24.04;46.45;98142.41;5060250;28;20216;-69
2022/08/13 09:11:51;;;;;;;2.50;2.30;;;;;;;24.14;46.64;98135.66;5046114;28;20219;-69
2022/08/13 09:14:20;;;;;;;2.10;2.00;;;;;;;24.17;46.38;98134.47;5065398;28;20215;-69
2022/08/13 09:16:49;;;;;;;2.37;2.27;;;;;;;24.14;46.48;98127.56;5064430;28;20558;-69
2022/08/13 09:19:15;;;;;;;2.63;2.43;;;;;;;24.07;45.65;98126.66;5064675;28;20216;-69
2022/08/13 09:21:43;;;;;;;2.63;2.30;;;;;;;24.02;46.83;98131.78;5067968;28;20214;-69
2022/08/13 09:24:14;;;;;;;2.30;2.10;;;;;;;23.99;45.74;98125.94;5066489;28;20719;-69
2022/08/13 09:26:43;;;;;;;2.20;2.10;;;;;;;23.99;47.21;98132.19;5056658;28;20251;-70
2022/08/13 09:29:11;;;;;;;2.37;2.10;;;;;;;24.06;45.45;98127.69;5064816;28;20227;-69
2022/08/13 09:31:43;;;;;;;2.50;2.20;;;;;;;24.08;45.87;98125.63;5063470;28;20239;-70
2022/08/13 09:34:09;;;;;;;2.20;2.00;;;;;;;24.08;45.93;98124.81;5066937;28;20215;-69
2022/08/13 09:36:37;;;;;;;6.67;2.30;;;;;;;24.25;45.45;98120.84;5063953;28;20211;-70
2022/08/13 09:39:04;;;;;;;2.33;2.13;;;;;;;24.36;45.39;98112.22;5065051;28;20212;-70
2022/08/13 09:41:40;;;;;;;3.17;1.93;;;;;;;24.57;44.97;98109.56;5065125;28;20219;-69
2022/08/13 09:44:06;;;;;;;2.27;2.07;;;;;;;24.74;44.92;98116.38;5065362;28;20238;-70
2022/08/13 09:46:34;;;;;;;2.60;2.00;;;;;;;24.94;43.80;98122.78;5063714;28;20211;-69
2022/08/13 09:49:08;;;;;;;1.90;1.80;;;;;;;25.22;43.99;98110.91;5066192;28;20224;-69
2022/08/13 09:51:35;;;;;;;2.33;2.00;;;;;;;25.59;42.48;98113.25;5065892;28;20226;-68
2022/08/13 09:54:02;;;;;;;2.53;1.85;;;;;;;25.50;43.15;98100.94;5064819;28;20215;-69
2022/08/13 09:56:28;;;;;;;2.87;1.80;;;;;;;25.55;41.22;98098.44;5063322;28;20220;-69
2022/08/13 09:58:55;;;;;;;2.08;1.98;;;;;;;25.48;41.70;98100.28;5066554;28;20648;-69
2022/08/13 10:01:21;;;;;;;2.58;2.38;;;;;;;25.52;41.86;98090.72;5066847;28;20218;-69
2022/08/13 10:03:49;;;;;;;3.08;2.10;;;;;;;25.55;42.22;98101.13;5064689;28;20246;-68
2022/08/13 10:06:18;;;;;;;3.27;1.97;;;;;;;25.64;40.93;98091.81;5063087;28;20269;-68
2022/08/13 10:08:45;;;;;;;1.87;1.77;;;;;;;25.71;40.59;98095.41;5066033;28;20218;-68
2022/08/13 10:11:11;;;;;;;3.38;1.77;;;;;;;25.87;39.51;98099.63;5066768;28;20272;-68
2022/08/13 10:13:38;;;;;;;2.65;1.90;;;;;;;26.01;39.03;98093.25;5065061;28;20221;-69
2022/08/13 10:16:05;;;;;;;1.70;1.60;;;;;;;26.17;38.57;98090.16;5062979;28;20239;-69
2022/08/13 10:18:31;;;;;;;1.88;1.75;;;;;;;26.24;38.74;98091.88;5064158;28;20581;-69
2022/08/13 10:20:59;;;;;;;1.60;1.50;;;;;;;26.46;39.41;98095.25;5066977;28;20211;-69
2022/08/13 10:23:27;;;;;;;2.00;1.80;;;;;;;26.51;37.52;98085.44;5065212;28;20478;-69
2022/08/13 10:25:53;;;;;;;3.88;1.80;;;;;;;26.47;38.26;98092.31;5062261;28;20224;-69
2022/08/13 10:28:22;;;;;;;2.22;1.77;;;;;;;26.26;38.39;98095.19;5065205;28;20216;-68
2022/08/13 10:30:50;;;;;;;1.95;1.40;;;;;;;26.13;37.27;98089.75;5066815;28;20211;-69
2022/08/13 10:33:17;;;;;;;1.90;1.80;;;;;;;26.01;36.86;98099.50;5064840;28;20215;-69
2022/08/13 10:35:44;;;;;;;2.67;1.88;;;;;;;25.98;37.40;98083.63;5062908;28;20218;-69
2022/08/13 10:38:15;;;;;;;2.28;1.70;;;;;;;25.91;36.45;98085.50;5064941;28;20677;-70
2022/08/13 10:40:44;;;;;;;2.47;1.75;;;;;;;25.76;36.94;98075.81;5066352;28;20297;-68
2022/08/13 10:43:11;;;;;;;2.85;2.10;;;;;;;25.55;37.29;98084.91;5062156;28;20222;-70
2022/08/13 10:45:40;;;;;;;1.70;1.40;;;;;;;25.43;37.64;98089.19;5060480;28;20220;-68
2022/08/13 10:48:11;;;;;;;1.60;1.50;;;;;;;25.38;38.62;98094.41;5065855;28;20265;-68
2022/08/13 10:50:38;;;;;;;1.70;1.60;;;;;;;25.57;38.48;98082.00;5066279;28;20227;-70
2022/08/13 10:53:05;;;;;;;1.95;1.67;;;;;;;25.70;37.01;98077.47;5063090;28;20228;-70
2022/08/13 10:55:33;;;;;;;1.75;1.65;;;;;;;25.60;37.01;98077.00;5062173;28;20223;-68
2022/08/13 10:58:13;;;;;;;1.70;1.60;;;;;;;25.39;37.29;98085.25;5065697;28;20243;-70
2022/08/13 11:00:40;;;;;;;2.05;1.60;;;;;;;25.23;38.04;98079.28;5065447;28;20634;-71
2022/08/13 11:03:07;;;;;;;1.98;1.70;;;;;;;25.35;38.14;98073.13;5062123;28;20212;-68
2022/08/13 11:05:33;;;;;;;2.75;1.50;;;;;;;25.53;37.58;98070.75;5063346;28;20389;-68
2022/08/13 11:08:00;;;;;;;3.03;1.80;;;;;;;25.77;37.87;98066.66;5065883;28;20222;-68
2022/08/13 11:10:26;;;;;;;1.65;1.55;;;;;;;26.04;37.01;98061.16;5064167;28;20218;-71
2022/08/13 11:12:53;;;;;;;2.35;1.60;;;;;;;26.19;37.33;98061.84;5054866;28;20686;-70
2022/08/13 11:15:21;;;;;;;2.22;1.80;;;;;;;26.39;36.86;98070.81;5062720;28;20212;-68
2022/08/13 11:17:50;;;;;;;4.55;1.70;;;;;;;26.63;36.18;98053.97;5065752;28;20223;-70
2022/08/13 11:20:19;;;;;;;1.75;1.65;;;;;;;26.78;36.03;98061.91;5065234;28;20219;-70
2022/08/13 11:22:47;;;;;;;2.20;2.00;;;;;;;26.78;35.58;98057.34;5061956;28;20220;-69
2022/08/13 11:25:14;;;;;;;1.67;1.52;;;;;;;26.89;34.88;98051.25;5063091;28;20246;-68
2022/08/13 11:27:40;;;;;;;1.95;1.75;;;;;;;27.04;35.69;98060.00;5065422;28;20218;-68
2022/08/13 11:30:08;;;;;;;1.85;1.75;;;;;;;27.01;35.24;98049.56;5064810;28;20215;-68
2022/08/13 11:32:36;;;;;;;1.65;1.55;;;;;;;27.10;34.80;98051.03;5061448;28;20227;-70
2022/08/13 11:35:04;;;;;;;1.98;1.80;;;;;;;27.27;34.92;98049.56;5062683;28;20582;-70
2022/08/13 11:37:30;;;;;;;2.50;1.50;;;;;;;27.43;34.00;98038.22;5062347;28;20587;-71
2022/08/13 11:39:57;;;;;;;2.33;1.60;;;;;;;27.58;34.16;98038.81;5062917;28;20260;-69
2022/08/13 11:42:23;;;;;;;1.70;1.60;;;;;;;27.62;33.56;98034.59;5061510;28;20295;-69
2022/08/13 11:44:50;;;;;;;1.40;1.30;;;;;;;27.70;32.62;98037.91;5061774;28;20249;-70
2022/08/13 11:47:16;;;;;;;2.72;1.52;;;;;;;27.82;31.57;98035.41;5065019;28;20215;-69
2022/08/13 11:49:44;;;;;;;1.77;1.50;;;;;;;28.05;31.62;98036.50;5064854;28;20212;-69
2022/08/13 11:52:11;;;;;;;2.08;1.85;;;;;;;28.13;31.70;98035.44;5061237;28;20208;-69
2022/08/13 11:54:37;;;;;;;1.70;1.60;;;;;;;28.12;32.45;98044.63;5061989;28;20219;-69
2022/08/13 11:57:06;;;;;;;3.95;1.70;;;;;;;28.17;31.80;98033.91;5064905;28;20239;-68